sensor_id;sensor_type;location;lat;lon;timestamp;pressure;altitude;pressure_sealevel;temperature
12007;BMP180;6062;47.294;12.182;2022-11-14T00:00:37;80402.00;;;7.00
12007;BMP180;6062;47.294;12.182;2022-11-14T00:03:05;80407.00;;;7.00
12007;BMP180;6062;47.294;12.182;2022-11-14T00:05:31;80400.00;;;7.00
12007;BMP180;6062;47.294;12.182;2022-11-14T00:07:58;80398.00;;;7.00
12007;BMP180;6062;47.294;12.182;2022-11-14T00:10:24;80388.00;;;7.00
12007;BMP180;6062;47.294;12.182;2022-11-14T00:12:49;80394.00;;;7.00
12007;BMP180;6062;47.294;12.182;2022-11-14T00:15:16;80403.00;;;7.00
12007;BMP180;6062;47.294;12.182;2022-11-14T00:17:42;80405.00;;;6.90
12007;BMP180;6062;47.294;12.182;2022-11-14T00:20:10;80401.00;;;6.90
12007;BMP180;6062;47.294;12.182;2022-11-14T00:22:36;80418.00;;;6.80
12007;BMP180;6062;47.294;12.182;2022-11-14T00:25:02;80414.00;;;6.70
12007;BMP180;6062;47.294;12.182;2022-11-14T00:27:28;80410.00;;;6.60
12007;BMP180;6062;47.294;12.182;2022-11-14T00:29:53;80407.00;;;6.50
12007;BMP180;6062;47.294;12.182;2022-11-14T00:32:20;80408.00;;;6.50
12007;BMP180;6062;47.294;12.182;2022-11-14T00:34:47;80419.00;;;6.40
12007;BMP180;6062;47.294;12.182;2022-11-14T00:37:13;80415.00;;;6.30
12007;BMP180;6062;47.294;12.182;2022-11-14T00:39:39;80414.00;;;6.30
12007;BMP180;6062;47.294;12.182;2022-11-14T00:42:05;80417.00;;;6.30
12007;BMP180;6062;47.294;12.182;2022-11-14T00:44:30;80415.00;;;6.30
12007;BMP180;6062;47.294;12.182;2022-11-14T00:46:56;80435.00;;;6.30
12007;BMP180;6062;47.294;12.182;2022-11-14T00:49:22;80421.00;;;6.30
12007;BMP180;6062;47.294;12.182;2022-11-14T00:51:47;80423.00;;;6.40
12007;BMP180;6062;47.294;12.182;2022-11-14T00:54:13;80428.00;;;6.40
12007;BMP180;6062;47.294;12.182;2022-11-14T00:56:39;80423.00;;;6.40
12007;BMP180;6062;47.294;12.182;2022-11-14T00:59:04;80419.00;;;6.50
12007;BMP180;6062;47.294;12.182;2022-11-14T01:01:30;80423.00;;;6.50
12007;BMP180;6062;47.294;12.182;2022-11-14T01:03:56;80429.00;;;6.50
12007;BMP180;6062;47.294;12.182;2022-11-14T01:06:22;80416.00;;;6.50
12007;BMP180;6062;47.294;12.182;2022-11-14T01:08:50;80416.00;;;6.50
12007;BMP180;6062;47.294;12.182;2022-11-14T01:11:20;80416.00;;;6.60
12007;BMP180;6062;47.294;12.182;2022-11-14T01:13:46;80392.00;;;6.60
12007;BMP180;6062;47.294;12.182;2022-11-14T01:16:12;80389.00;;;6.60
12007;BMP180;6062;47.294;12.182;2022-11-14T01:18:39;80391.00;;;6.60
12007;BMP180;6062;47.294;12.182;2022-11-14T01:21:08;80409.00;;;6.70
12007;BMP180;6062;47.294;12.182;2022-11-14T01:23:34;80399.00;;;6.70
12007;BMP180;6062;47.294;12.182;2022-11-14T01:26:06;80400.00;;;6.70
12007;BMP180;6062;47.294;12.182;2022-11-14T01:28:32;80383.00;;;6.70
12007;BMP180;6062;47.294;12.182;2022-11-14T01:31:18;80398.00;;;6.80
12007;BMP180;6062;47.294;12.182;2022-11-14T01:33:49;80393.00;;;6.80
12007;BMP180;6062;47.294;12.182;2022-11-14T01:36:15;80395.00;;;6.80
12007;BMP180;6062;47.294;12.182;2022-11-14T01:38:41;80386.00;;;6.80
12007;BMP180;6062;47.294;12.182;2022-11-14T01:41:07;80388.00;;;6.80
12007;BMP180;6062;47.294;12.182;2022-11-14T01:43:35;80388.00;;;6.90
12007;BMP180;6062;47.294;12.182;2022-11-14T01:54:11;80372.00;;;6.90
12007;BMP180;6062;47.294;12.182;2022-11-14T01:56:53;80380.00;;;7.00
12007;BMP180;6062;47.294;12.182;2022-11-14T01:59:24;80379.00;;;7.00
12007;BMP180;6062;47.294;12.182;2022-11-14T02:01:55;80373.00;;;7.00
12007;BMP180;6062;47.294;12.182;2022-11-14T02:04:30;80369.00;;;7.00
12007;BMP180;6062;47.294;12.182;2022-11-14T02:07:01;80364.00;;;6.90
12007;BMP180;6062;47.294;12.182;2022-11-14T02:09:33;80375.00;;;6.90
12007;BMP180;6062;47.294;12.182;2022-11-14T02:12:03;80380.00;;;6.90
12007;BMP180;6062;47.294;12.182;2022-11-14T02:14:31;80375.00;;;7.00
12007;BMP180;6062;47.294;12.182;2022-11-14T02:16:57;80368.00;;;7.00
12007;BMP180;6062;47.294;12.182;2022-11-14T02:19:23;80355.00;;;7.10
12007;BMP180;6062;47.294;12.182;2022-11-14T02:21:49;80354.00;;;7.10
12007;BMP180;6062;47.294;12.182;2022-11-14T02:24:14;80354.00;;;7.20
12007;BMP180;6062;47.294;12.182;2022-11-14T02:26:41;80331.00;;;7.20
12007;BMP180;6062;47.294;12.182;2022-11-14T02:29:10;80348.00;;;7.20
12007;BMP180;6062;47.294;12.182;2022-11-14T02:31:36;80344.00;;;7.20
12007;BMP180;6062;47.294;12.182;2022-11-14T02:34:01;80331.00;;;7.20
12007;BMP180;6062;47.294;12.182;2022-11-14T02:36:27;80334.00;;;7.20
12007;BMP180;6062;47.294;12.182;2022-11-14T02:38:53;80353.00;;;7.20
12007;BMP180;6062;47.294;12.182;2022-11-14T02:41:18;80353.00;;;7.20
12007;BMP180;6062;47.294;12.182;2022-11-14T02:43:44;80350.00;;;7.20
12007;BMP180;6062;47.294;12.182;2022-11-14T02:46:10;80360.00;;;7.20
12007;BMP180;6062;47.294;12.182;2022-11-14T02:48:36;80354.00;;;7.20
12007;BMP180;6062;47.294;12.182;2022-11-14T02:51:01;80354.00;;;7.30
12007;BMP180;6062;47.294;12.182;2022-11-14T02:53:27;80364.00;;;7.30
12007;BMP180;6062;47.294;12.182;2022-11-14T02:55:53;80353.00;;;7.20
12007;BMP180;6062;47.294;12.182;2022-11-14T02:58:18;80360.00;;;7.30
12007;BMP180;6062;47.294;12.182;2022-11-14T03:00:44;80360.00;;;7.30
12007;BMP180;6062;47.294;12.182;2022-11-14T03:03:10;80352.00;;;7.30
12007;BMP180;6062;47.294;12.182;2022-11-14T03:05:35;80355.00;;;7.30
12007;BMP180;6062;47.294;12.182;2022-11-14T03:08:01;80358.00;;;7.20
12007;BMP180;6062;47.294;12.182;2022-11-14T03:10:27;80352.00;;;7.20
12007;BMP180;6062;47.294;12.182;2022-11-14T03:12:56;80362.00;;;7.30
12007;BMP180;6062;47.294;12.182;2022-11-14T03:15:23;80346.00;;;7.20
12007;BMP180;6062;47.294;12.182;2022-11-14T03:17:50;80353.00;;;7.20
12007;BMP180;6062;47.294;12.182;2022-11-14T03:20:17;80351.00;;;7.20
12007;BMP180;6062;47.294;12.182;2022-11-14T03:22:43;80363.00;;;7.20
12007;BMP180;6062;47.294;12.182;2022-11-14T03:25:08;80352.00;;;7.20
12007;BMP180;6062;47.294;12.182;2022-11-14T03:27:34;80345.00;;;7.20
12007;BMP180;6062;47.294;12.182;2022-11-14T03:29:59;80351.00;;;7.20
12007;BMP180;6062;47.294;12.182;2022-11-14T03:32:25;80342.00;;;7.20
12007;BMP180;6062;47.294;12.182;2022-11-14T03:34:51;80342.00;;;7.20
12007;BMP180;6062;47.294;12.182;2022-11-14T03:37:16;80337.00;;;7.20
12007;BMP180;6062;47.294;12.182;2022-11-14T03:39:42;80336.00;;;7.10
12007;BMP180;6062;47.294;12.182;2022-11-14T03:42:08;80333.00;;;7.20
12007;BMP180;6062;47.294;12.182;2022-11-14T03:44:34;80337.00;;;7.20
12007;BMP180;6062;47.294;12.182;2022-11-14T03:47:00;80335.00;;;7.20
12007;BMP180;6062;47.294;12.182;2022-11-14T03:49:26;80336.00;;;7.20
12007;BMP180;6062;47.294;12.182;2022-11-14T03:51:51;80348.00;;;7.20
12007;BMP180;6062;47.294;12.182;2022-11-14T03:54:17;80339.00;;;7.20
12007;BMP180;6062;47.294;12.182;2022-11-14T03:56:43;80342.00;;;7.20
12007;BMP180;6062;47.294;12.182;2022-11-14T03:59:08;80345.00;;;7.10
12007;BMP180;6062;47.294;12.182;2022-11-14T04:01:34;80354.00;;;7.10
12007;BMP180;6062;47.294;12.182;2022-11-14T04:04:00;80348.00;;;7.00
12007;BMP180;6062;47.294;12.182;2022-11-14T04:06:25;80342.00;;;7.00
12007;BMP180;6062;47.294;12.182;2022-11-14T04:08:51;80330.00;;;7.00
12007;BMP180;6062;47.294;12.182;2022-11-14T04:11:17;80342.00;;;7.00
12007;BMP180;6062;47.294;12.182;2022-11-14T04:13:43;80342.00;;;7.10
12007;BMP180;6062;47.294;12.182;2022-11-14T04:16:08;80339.00;;;7.00
12007;BMP180;6062;47.294;12.182;2022-11-14T04:18:34;80336.00;;;7.10
12007;BMP180;6062;47.294;12.182;2022-11-14T04:21:00;80323.00;;;7.10
12007;BMP180;6062;47.294;12.182;2022-11-14T04:23:25;80331.00;;;7.10
12007;BMP180;6062;47.294;12.182;2022-11-14T04:25:51;80328.00;;;7.10
12007;BMP180;6062;47.294;12.182;2022-11-14T04:28:17;80310.00;;;7.10
12007;BMP180;6062;47.294;12.182;2022-11-14T04:30:43;80311.00;;;7.10
12007;BMP180;6062;47.294;12.182;2022-11-14T04:33:10;80310.00;;;7.10
12007;BMP180;6062;47.294;12.182;2022-11-14T04:35:36;80305.00;;;7.10
12007;BMP180;6062;47.294;12.182;2022-11-14T04:38:02;80296.00;;;7.00
12007;BMP180;6062;47.294;12.182;2022-11-14T04:40:28;80310.00;;;7.00
12007;BMP180;6062;47.294;12.182;2022-11-14T04:42:53;80315.00;;;6.90
12007;BMP180;6062;47.294;12.182;2022-11-14T04:45:19;80366.00;;;6.80
12007;BMP180;6062;47.294;12.182;2022-11-14T04:47:45;80349.00;;;6.70
12007;BMP180;6062;47.294;12.182;2022-11-14T04:50:10;80359.00;;;6.70
12007;BMP180;6062;47.294;12.182;2022-11-14T04:52:36;80356.00;;;6.60
12007;BMP180;6062;47.294;12.182;2022-11-14T04:55:02;80364.00;;;6.60
12007;BMP180;6062;47.294;12.182;2022-11-14T04:57:28;80366.00;;;6.50
12007;BMP180;6062;47.294;12.182;2022-11-14T04:59:53;80387.00;;;6.50
12007;BMP180;6062;47.294;12.182;2022-11-14T05:02:19;80345.00;;;6.50
12007;BMP180;6062;47.294;12.182;2022-11-14T05:04:45;80362.00;;;6.50
12007;BMP180;6062;47.294;12.182;2022-11-14T05:07:13;80334.00;;;6.40
12007;BMP180;6062;47.294;12.182;2022-11-14T05:09:39;80339.00;;;6.40
12007;BMP180;6062;47.294;12.182;2022-11-14T05:12:05;80357.00;;;6.40
12007;BMP180;6062;47.294;12.182;2022-11-14T05:14:32;80354.00;;;6.40
12007;BMP180;6062;47.294;12.182;2022-11-14T05:16:58;80349.00;;;6.40
12007;BMP180;6062;47.294;12.182;2022-11-14T05:19:24;80349.00;;;6.40
12007;BMP180;6062;47.294;12.182;2022-11-14T05:21:50;80354.00;;;6.40
12007;BMP180;6062;47.294;12.182;2022-11-14T05:24:16;80358.00;;;6.40
12007;BMP180;6062;47.294;12.182;2022-11-14T05:26:41;80361.00;;;6.30
12007;BMP180;6062;47.294;12.182;2022-11-14T05:29:07;80372.00;;;6.30
12007;BMP180;6062;47.294;12.182;2022-11-14T05:31:33;80381.00;;;6.30
12007;BMP180;6062;47.294;12.182;2022-11-14T05:33:58;80356.00;;;6.30
12007;BMP180;6062;47.294;12.182;2022-11-14T05:36:24;80380.00;;;6.30
12007;BMP180;6062;47.294;12.182;2022-11-14T05:38:50;80380.00;;;6.30
12007;BMP180;6062;47.294;12.182;2022-11-14T05:41:18;80365.00;;;6.30
12007;BMP180;6062;47.294;12.182;2022-11-14T05:43:46;80369.00;;;6.30
12007;BMP180;6062;47.294;12.182;2022-11-14T05:46:14;80360.00;;;6.30
12007;BMP180;6062;47.294;12.182;2022-11-14T05:48:41;80368.00;;;6.30
12007;BMP180;6062;47.294;12.182;2022-11-14T05:51:10;80367.00;;;6.40
12007;BMP180;6062;47.294;12.182;2022-11-14T05:53:36;80366.00;;;6.40
12007;BMP180;6062;47.294;12.182;2022-11-14T05:56:04;80357.00;;;6.40
12007;BMP180;6062;47.294;12.182;2022-11-14T05:58:31;80373.00;;;6.40
12007;BMP180;6062;47.294;12.182;2022-11-14T06:01:10;80370.00;;;6.40
12007;BMP180;6062;47.294;12.182;2022-11-14T06:03:41;80401.00;;;6.40
12007;BMP180;6062;47.294;12.182;2022-11-14T06:06:10;80380.00;;;6.40
12007;BMP180;6062;47.294;12.182;2022-11-14T06:08:37;80359.00;;;6.50
12007;BMP180;6062;47.294;12.182;2022-11-14T06:11:09;80367.00;;;6.50
12007;BMP180;6062;47.294;12.182;2022-11-14T06:13:36;80378.00;;;6.50
12007;BMP180;6062;47.294;12.182;2022-11-14T06:16:05;80348.00;;;6.50
12007;BMP180;6062;47.294;12.182;2022-11-14T06:18:33;80366.00;;;6.50
12007;BMP180;6062;47.294;12.182;2022-11-14T06:21:00;80360.00;;;6.60
12007;BMP180;6062;47.294;12.182;2022-11-14T06:23:27;80344.00;;;6.60
12007;BMP180;6062;47.294;12.182;2022-11-14T06:26:04;80344.00;;;6.60
12007;BMP180;6062;47.294;12.182;2022-11-14T06:28:31;80379.00;;;6.60
12007;BMP180;6062;47.294;12.182;2022-11-14T06:31:02;80365.00;;;6.60
12007;BMP180;6062;47.294;12.182;2022-11-14T06:33:34;80366.00;;;6.70
12007;BMP180;6062;47.294;12.182;2022-11-14T06:36:03;80355.00;;;6.70
12007;BMP180;6062;47.294;12.182;2022-11-14T06:38:34;80383.00;;;6.70
12007;BMP180;6062;47.294;12.182;2022-11-14T06:41:15;80400.00;;;6.70
12007;BMP180;6062;47.294;12.182;2022-11-14T06:43:45;80394.00;;;6.80
12007;BMP180;6062;47.294;12.182;2022-11-14T06:46:14;80415.00;;;6.90
12007;BMP180;6062;47.294;12.182;2022-11-14T06:48:41;80384.00;;;7.00
12007;BMP180;6062;47.294;12.182;2022-11-14T06:51:10;80407.00;;;7.20
12007;BMP180;6062;47.294;12.182;2022-11-14T06:53:37;80406.00;;;7.60
12007;BMP180;6062;47.294;12.182;2022-11-14T06:56:15;80404.00;;;8.10
12007;BMP180;6062;47.294;12.182;2022-11-14T06:58:47;80401.00;;;8.70
12007;BMP180;6062;47.294;12.182;2022-11-14T07:01:24;80397.00;;;9.30
12007;BMP180;6062;47.294;12.182;2022-11-14T07:03:53;80380.00;;;9.90
12007;BMP180;6062;47.294;12.182;2022-11-14T07:06:23;80399.00;;;10.50
12007;BMP180;6062;47.294;12.182;2022-11-14T07:08:50;80400.00;;;11.20
12007;BMP180;6062;47.294;12.182;2022-11-14T07:11:20;80398.00;;;11.70
12007;BMP180;6062;47.294;12.182;2022-11-14T07:13:56;80427.00;;;12.30
12007;BMP180;6062;47.294;12.182;2022-11-14T07:16:34;80421.00;;;12.70
12007;BMP180;6062;47.294;12.182;2022-11-14T07:19:02;80406.00;;;13.10
12007;BMP180;6062;47.294;12.182;2022-11-14T07:21:30;80393.00;;;13.50
12007;BMP180;6062;47.294;12.182;2022-11-14T07:23:56;80411.00;;;13.50
12007;BMP180;6062;47.294;12.182;2022-11-14T07:26:22;80406.00;;;13.40
12007;BMP180;6062;47.294;12.182;2022-11-14T07:28:48;80408.00;;;13.40
12007;BMP180;6062;47.294;12.182;2022-11-14T07:31:17;80414.00;;;13.20
12007;BMP180;6062;47.294;12.182;2022-11-14T07:33:44;80429.00;;;13.10
12007;BMP180;6062;47.294;12.182;2022-11-14T07:36:12;80403.00;;;13.10
12007;BMP180;6062;47.294;12.182;2022-11-14T07:38:38;80408.00;;;13.50
12007;BMP180;6062;47.294;12.182;2022-11-14T07:41:08;80415.00;;;13.80
12007;BMP180;6062;47.294;12.182;2022-11-14T07:43:34;80391.00;;;13.90
12007;BMP180;6062;47.294;12.182;2022-11-14T07:46:02;80396.00;;;14.10
12007;BMP180;6062;47.294;12.182;2022-11-14T07:48:29;80398.00;;;14.30
12007;BMP180;6062;47.294;12.182;2022-11-14T07:50:59;80421.00;;;14.40
12007;BMP180;6062;47.294;12.182;2022-11-14T07:53:26;80408.00;;;14.40
12007;BMP180;6062;47.294;12.182;2022-11-14T07:55:52;80413.00;;;14.70
12007;BMP180;6062;47.294;12.182;2022-11-14T07:58:18;80414.00;;;14.90
12007;BMP180;6062;47.294;12.182;2022-11-14T08:00:44;80388.00;;;15.00
12007;BMP180;6062;47.294;12.182;2022-11-14T08:03:10;80416.00;;;15.20
12007;BMP180;6062;47.294;12.182;2022-11-14T08:05:35;80417.00;;;15.20
12007;BMP180;6062;47.294;12.182;2022-11-14T08:08:01;80403.00;;;15.30
12007;BMP180;6062;47.294;12.182;2022-11-14T08:10:27;80412.00;;;15.60
12007;BMP180;6062;47.294;12.182;2022-11-14T08:13:01;80411.00;;;16.20
12007;BMP180;6062;47.294;12.182;2022-11-14T08:15:28;80391.00;;;16.60
12007;BMP180;6062;47.294;12.182;2022-11-14T08:17:59;80420.00;;;17.00
12007;BMP180;6062;47.294;12.182;2022-11-14T08:20:26;80404.00;;;17.00
12007;BMP180;6062;47.294;12.182;2022-11-14T08:22:53;80395.00;;;17.20
12007;BMP180;6062;47.294;12.182;2022-11-14T08:25:19;80422.00;;;17.10
12007;BMP180;6062;47.294;12.182;2022-11-14T08:27:45;80383.00;;;17.00
12007;BMP180;6062;47.294;12.182;2022-11-14T08:30:11;80404.00;;;16.90
12007;BMP180;6062;47.294;12.182;2022-11-14T08:32:37;80405.00;;;16.80
12007;BMP180;6062;47.294;12.182;2022-11-14T08:35:03;80402.00;;;16.60
12007;BMP180;6062;47.294;12.182;2022-11-14T08:37:29;80384.00;;;16.70
12007;BMP180;6062;47.294;12.182;2022-11-14T08:39:55;80423.00;;;17.00
12007;BMP180;6062;47.294;12.182;2022-11-14T08:42:20;80401.00;;;16.90
12007;BMP180;6062;47.294;12.182;2022-11-14T08:44:46;80420.00;;;16.70
12007;BMP180;6062;47.294;12.182;2022-11-14T08:47:12;80410.00;;;16.60
12007;BMP180;6062;47.294;12.182;2022-11-14T08:49:37;80391.00;;;16.50
12007;BMP180;6062;47.294;12.182;2022-11-14T08:52:03;80370.00;;;16.20
12007;BMP180;6062;47.294;12.182;2022-11-14T08:54:29;80397.00;;;15.90
12007;BMP180;6062;47.294;12.182;2022-11-14T08:56:54;80429.00;;;15.70
12007;BMP180;6062;47.294;12.182;2022-11-14T08:59:20;80397.00;;;15.40
12007;BMP180;6062;47.294;12.182;2022-11-14T09:01:46;80418.00;;;15.10
12007;BMP180;6062;47.294;12.182;2022-11-14T09:04:11;80414.00;;;14.90
12007;BMP180;6062;47.294;12.182;2022-11-14T09:06:37;80383.00;;;14.70
12007;BMP180;6062;47.294;12.182;2022-11-14T09:09:03;80397.00;;;14.60
12007;BMP180;6062;47.294;12.182;2022-11-14T09:11:28;80447.00;;;14.60
12007;BMP180;6062;47.294;12.182;2022-11-14T09:13:54;80393.00;;;14.50
12007;BMP180;6062;47.294;12.182;2022-11-14T09:16:20;80407.00;;;14.50
12007;BMP180;6062;47.294;12.182;2022-11-14T09:18:45;80418.00;;;14.40
12007;BMP180;6062;47.294;12.182;2022-11-14T09:21:11;80406.00;;;14.40
12007;BMP180;6062;47.294;12.182;2022-11-14T09:23:37;80400.00;;;14.40
12007;BMP180;6062;47.294;12.182;2022-11-14T09:26:08;80383.00;;;14.40
12007;BMP180;6062;47.294;12.182;2022-11-14T09:28:34;80361.00;;;14.40
12007;BMP180;6062;47.294;12.182;2022-11-14T09:31:06;80412.00;;;14.40
12007;BMP180;6062;47.294;12.182;2022-11-14T09:33:33;80402.00;;;14.30
12007;BMP180;6062;47.294;12.182;2022-11-14T09:36:01;80408.00;;;14.10
12007;BMP180;6062;47.294;12.182;2022-11-14T09:38:28;80387.00;;;13.90
12007;BMP180;6062;47.294;12.182;2022-11-14T09:41:43;80379.00;;;13.80
12007;BMP180;6062;47.294;12.182;2022-11-14T09:44:12;80384.00;;;13.90
12007;BMP180;6062;47.294;12.182;2022-11-14T09:46:45;80394.00;;;14.10
12007;BMP180;6062;47.294;12.182;2022-11-14T09:49:28;80386.00;;;13.90
12007;BMP180;6062;47.294;12.182;2022-11-14T09:52:27;80386.00;;;13.80
12007;BMP180;6062;47.294;12.182;2022-11-14T09:55:02;80401.00;;;13.80
12007;BMP180;6062;47.294;12.182;2022-11-14T09:57:29;80375.00;;;13.70
12007;BMP180;6062;47.294;12.182;2022-11-14T09:59:55;80387.00;;;13.60
12007;BMP180;6062;47.294;12.182;2022-11-14T10:03:22;80395.00;;;13.30
12007;BMP180;6062;47.294;12.182;2022-11-14T10:06:06;80399.00;;;13.30
12007;BMP180;6062;47.294;12.182;2022-11-14T10:09:00;80379.00;;;13.50
12007;BMP180;6062;47.294;12.182;2022-11-14T10:11:54;80350.00;;;13.80
12007;BMP180;6062;47.294;12.182;2022-11-14T10:14:40;80372.00;;;14.30
12007;BMP180;6062;47.294;12.182;2022-11-14T10:17:23;80395.00;;;15.20
12007;BMP180;6062;47.294;12.182;2022-11-14T10:26:14;80379.00;;;18.40
12007;BMP180;6062;47.294;12.182;2022-11-14T10:29:27;80391.00;;;19.40
12007;BMP180;6062;47.294;12.182;2022-11-14T10:35:22;80384.00;;;20.70
12007;BMP180;6062;47.294;12.182;2022-11-14T10:38:00;80398.00;;;21.20
12007;BMP180;6062;47.294;12.182;2022-11-14T10:40:51;80405.00;;;21.50
12007;BMP180;6062;47.294;12.182;2022-11-14T10:43:29;80417.00;;;21.60
12007;BMP180;6062;47.294;12.182;2022-11-14T10:46:05;80394.00;;;21.70
12007;BMP180;6062;47.294;12.182;2022-11-14T10:48:40;80396.00;;;22.00
12007;BMP180;6062;47.294;12.182;2022-11-14T10:56:20;80413.00;;;23.00
12007;BMP180;6062;47.294;12.182;2022-11-14T10:58:46;80403.00;;;23.10
12007;BMP180;6062;47.294;12.182;2022-11-14T11:04:29;80391.00;;;23.10
12007;BMP180;6062;47.294;12.182;2022-11-14T11:09:35;80397.00;;;23.90
12007;BMP180;6062;47.294;12.182;2022-11-14T11:12:24;80403.00;;;24.50
12007;BMP180;6062;47.294;12.182;2022-11-14T11:15:23;80405.00;;;24.50
12007;BMP180;6062;47.294;12.182;2022-11-14T11:18:01;80410.00;;;23.60
12007;BMP180;6062;47.294;12.182;2022-11-14T11:20:36;80411.00;;;22.40
12007;BMP180;6062;47.294;12.182;2022-11-14T11:25:37;80410.00;;;21.00
12007;BMP180;6062;47.294;12.182;2022-11-14T11:30:39;80404.00;;;19.70
12007;BMP180;6062;47.294;12.182;2022-11-14T11:33:25;80394.00;;;19.20
12007;BMP180;6062;47.294;12.182;2022-11-14T11:35:56;80382.00;;;18.90
12007;BMP180;6062;47.294;12.182;2022-11-14T11:38:29;80391.00;;;18.50
12007;BMP180;6062;47.294;12.182;2022-11-14T11:41:24;80385.00;;;18.30
12007;BMP180;6062;47.294;12.182;2022-11-14T11:44:09;80393.00;;;18.00
12007;BMP180;6062;47.294;12.182;2022-11-14T11:46:58;80389.00;;;17.60
12007;BMP180;6062;47.294;12.182;2022-11-14T11:49:47;80379.00;;;17.00
12007;BMP180;6062;47.294;12.182;2022-11-14T11:52:25;80391.00;;;16.60
12007;BMP180;6062;47.294;12.182;2022-11-14T11:55:16;80397.00;;;16.50
12007;BMP180;6062;47.294;12.182;2022-11-14T11:57:53;80390.00;;;16.60
12007;BMP180;6062;47.294;12.182;2022-11-14T12:00:22;80384.00;;;16.70
12007;BMP180;6062;47.294;12.182;2022-11-14T12:02:50;80399.00;;;16.90
12007;BMP180;6062;47.294;12.182;2022-11-14T12:08:55;80387.00;;;17.60
12007;BMP180;6062;47.294;12.182;2022-11-14T12:11:26;80398.00;;;18.00
12007;BMP180;6062;47.294;12.182;2022-11-14T12:20:26;80393.00;;;18.80
12007;BMP180;6062;47.294;12.182;2022-11-14T12:26:41;80412.00;;;18.60
12007;BMP180;6062;47.294;12.182;2022-11-14T12:32:05;80414.00;;;18.30
12007;BMP180;6062;47.294;12.182;2022-11-14T12:34:38;80414.00;;;18.10
12007;BMP180;6062;47.294;12.182;2022-11-14T12:37:23;80413.00;;;17.90
12007;BMP180;6062;47.294;12.182;2022-11-14T12:40:06;80415.00;;;17.60
12007;BMP180;6062;47.294;12.182;2022-11-14T12:42:36;80409.00;;;17.10
12007;BMP180;6062;47.294;12.182;2022-11-14T12:45:02;80415.00;;;16.70
12007;BMP180;6062;47.294;12.182;2022-11-14T12:47:28;80410.00;;;16.40
12007;BMP180;6062;47.294;12.182;2022-11-14T12:52:45;80403.00;;;15.90
12007;BMP180;6062;47.294;12.182;2022-11-14T12:58:12;80420.00;;;15.50
12007;BMP180;6062;47.294;12.182;2022-11-14T13:06:16;80423.00;;;15.20
12007;BMP180;6062;47.294;12.182;2022-11-14T13:11:50;80423.00;;;14.80
12007;BMP180;6062;47.294;12.182;2022-11-14T13:14:50;80412.00;;;14.40
12007;BMP180;6062;47.294;12.182;2022-11-14T13:17:35;80414.00;;;14.20
12007;BMP180;6062;47.294;12.182;2022-11-14T13:20:31;80418.00;;;14.00
12007;BMP180;6062;47.294;12.182;2022-11-14T13:33:54;80415.00;;;13.50
12007;BMP180;6062;47.294;12.182;2022-11-14T13:36:49;80419.00;;;13.30
12007;BMP180;6062;47.294;12.182;2022-11-14T13:39:33;80412.00;;;13.10
12007;BMP180;6062;47.294;12.182;2022-11-14T13:42:39;80411.00;;;12.80
12007;BMP180;6062;47.294;12.182;2022-11-14T13:48:33;80417.00;;;12.50
12007;BMP180;6062;47.294;12.182;2022-11-14T13:51:06;80413.00;;;12.40
12007;BMP180;6062;47.294;12.182;2022-11-14T13:53:39;80416.00;;;12.40
12007;BMP180;6062;47.294;12.182;2022-11-14T14:00:07;80413.00;;;12.40
12007;BMP180;6062;47.294;12.182;2022-11-14T14:06:10;80406.00;;;12.10
12007;BMP180;6062;47.294;12.182;2022-11-14T14:11:45;80400.00;;;12.00
12007;BMP180;6062;47.294;12.182;2022-11-14T14:14:49;80404.00;;;11.80
12007;BMP180;6062;47.294;12.182;2022-11-14T14:17:55;80400.00;;;11.70
12007;BMP180;6062;47.294;12.182;2022-11-14T14:20:47;80402.00;;;11.60
12007;BMP180;6062;47.294;12.182;2022-11-14T14:23:31;80404.00;;;11.50
12007;BMP180;6062;47.294;12.182;2022-11-14T14:26:28;80403.00;;;11.40
12007;BMP180;6062;47.294;12.182;2022-11-14T14:29:24;80409.00;;;11.40
12007;BMP180;6062;47.294;12.182;2022-11-14T14:31:49;80414.00;;;11.40
12007;BMP180;6062;47.294;12.182;2022-11-14T14:34:28;80412.00;;;11.40
12007;BMP180;6062;47.294;12.182;2022-11-14T14:36:56;80405.00;;;11.40
12007;BMP180;6062;47.294;12.182;2022-11-14T14:39:27;80401.00;;;11.30
12007;BMP180;6062;47.294;12.182;2022-11-14T14:41:56;80413.00;;;11.30
12007;BMP180;6062;47.294;12.182;2022-11-14T14:44:27;80408.00;;;11.30
12007;BMP180;6062;47.294;12.182;2022-11-14T14:46:56;80421.00;;;11.30
12007;BMP180;6062;47.294;12.182;2022-11-14T14:49:28;80408.00;;;11.20
12007;BMP180;6062;47.294;12.182;2022-11-14T14:51:54;80423.00;;;11.20
12007;BMP180;6062;47.294;12.182;2022-11-14T14:54:27;80423.00;;;11.20
12007;BMP180;6062;47.294;12.182;2022-11-14T14:57:02;80416.00;;;11.10
12007;BMP180;6062;47.294;12.182;2022-11-14T14:59:30;80411.00;;;11.10
12007;BMP180;6062;47.294;12.182;2022-11-14T15:01:56;80417.00;;;11.00
12007;BMP180;6062;47.294;12.182;2022-11-14T15:04:26;80420.00;;;11.00
12007;BMP180;6062;47.294;12.182;2022-11-14T15:06:53;80413.00;;;10.90
12007;BMP180;6062;47.294;12.182;2022-11-14T15:09:27;80407.00;;;10.80
12007;BMP180;6062;47.294;12.182;2022-11-14T15:11:57;80406.00;;;10.70
12007;BMP180;6062;47.294;12.182;2022-11-14T15:14:31;80413.00;;;10.60
12007;BMP180;6062;47.294;12.182;2022-11-14T15:17:00;80405.00;;;10.50
12007;BMP180;6062;47.294;12.182;2022-11-14T15:19:40;80409.00;;;10.50
12007;BMP180;6062;47.294;12.182;2022-11-14T15:22:29;80417.00;;;10.40
12007;BMP180;6062;47.294;12.182;2022-11-14T15:25:24;80418.00;;;10.30
12007;BMP180;6062;47.294;12.182;2022-11-14T15:27:53;80409.00;;;10.30
12007;BMP180;6062;47.294;12.182;2022-11-14T15:30:29;80405.00;;;10.20
12007;BMP180;6062;47.294;12.182;2022-11-14T15:33:03;80408.00;;;10.10
12007;BMP180;6062;47.294;12.182;2022-11-14T15:35:33;80407.00;;;10.00
12007;BMP180;6062;47.294;12.182;2022-11-14T15:40:39;80414.00;;;9.90
12007;BMP180;6062;47.294;12.182;2022-11-14T15:46:36;80416.00;;;9.70
12007;BMP180;6062;47.294;12.182;2022-11-14T15:49:21;80406.00;;;9.50
12007;BMP180;6062;47.294;12.182;2022-11-14T15:52:32;80416.00;;;9.40
12007;BMP180;6062;47.294;12.182;2022-11-14T15:54:56;80412.00;;;9.30
12007;BMP180;6062;47.294;12.182;2022-11-14T15:57:22;80405.00;;;9.20
12007;BMP180;6062;47.294;12.182;2022-11-14T15:59:48;80413.00;;;9.10
12007;BMP180;6062;47.294;12.182;2022-11-14T16:02:17;80415.00;;;8.90
12007;BMP180;6062;47.294;12.182;2022-11-14T16:04:44;80416.00;;;8.90
12007;BMP180;6062;47.294;12.182;2022-11-14T16:07:13;80421.00;;;8.70
12007;BMP180;6062;47.294;12.182;2022-11-14T16:09:39;80424.00;;;8.60
12007;BMP180;6062;47.294;12.182;2022-11-14T16:12:06;80434.00;;;8.50